Williamsburg, MO (63388)

9:55 AM CDT on April 19, 2015 (GMT -0500)
YMCA | | Change Station
CLOSE
Current Station
Personal Weather Station
Location: Fulton, MO
Elevation: 853 ft
Nearby Weather Stations

Elev 853 ft 38.86 °N, 91.94 °W | Updated 10 minutes ago

Rain
Rain
58.9 °F
Feels Like 58.9 °F
N
3.0
Wind Variable Wind from WSW
Gusts 10.0 mph

Today
High -- | Low -- °F
--% Chance of Precip.
Yesterday
High -- | Low -- °F
Precip. -- in
6:26 AM 7:48 PM
New Moon, 1% visible
Pressure 29.68 in
Visibility 2.0 miles
Clouds Scattered Clouds 400 ft
Mostly Cloudy 6000 ft
Overcast 8500 ft
Dew Point 58 °F
Humidity 97%
Rainfall 0.10 in
Snow Depth Not available.
UV 1 out of 12
Pollen 7.20 out of 12
Air Quality Not available.
Flu Activity Local Activity
SPECI KCOU 191431Z 28004KT 2SM RA BR SCT004 BKN060 OVC085 14/14 A2968 RMK AO2 TSE03 P0014 T01440139

More Conditions Fewer Conditions

Pressure 29.68 in
Visibility 2.0 miles
Clouds Scattered Clouds 400 ft
Mostly Cloudy 6000 ft
Overcast 8500 ft
Dew Point 58 °F
Humidity 97%
Rainfall 0.10 in
Snow Depth Not available.
UV 1 out of 12
Pollen 7.20 out of 12
Air Quality Not available.
Flu Activity Local Activity
SPECI KCOU 191431Z 28004KT 2SM RA BR SCT004 BKN060 OVC085 14/14 A2968 RMK AO2 TSE03 P0014 T01440139

More Conditions Fewer Conditions

10-Day Weather Forecast

Almanac

Astronomy

Apr. 19, 2015 Rise Set
Actual Time
Civil Twilight
Nautical Twilight
Astronomical Twilight
Moon
Length of Visible Light
Length of Day
Tomorrow will be .
, % of the Moon is Illuminated

Today's Extremes

State Highs State Lows

Community

WunderPhotos

Upload Photos

1,814,826 photos uploaded!

WunderBlogs® & News

Nearby

Air Quality

  Air Quality AQ Index Pollutant
Not available.

Snow Depth

Station Depth Elevation

Earthquake Activity

City Distance Mag. Time & Date
Minimum magnitude displayed is 2.5.

Coastal Water Temperatures

Place Temperature

Stations

Nearby Weather Stations

Station Location Temp. Windchill Dew Point Humidity Wind Precip. Elev Updated Type